Time;durP1;ratioP1;P1;durP2;ratioP2;P2;SDS_P1;SDS_P2;PMS_P1;PMS_P2;Temp;Humidity;BMP_temperature;BMP_pressure;BME280_temperature;BME280_humidity;BME280_pressure;Samples;Min_cycle;Max_cycle;Signal;HPM_P1;HPM_P2
2023/02/22 00:00:43;;;;;;;207.02;187.85;;;;;;;6.79;90.64;101779.78;4921772;29;20042;-73
2023/02/22 00:03:16;;;;;;;215.90;197.85;;;;;;;6.82;90.59;101782.00;4920881;29;20043;-72
2023/02/22 00:05:45;;;;;;;205.25;187.10;;;;;;;6.84;90.25;101787.94;4922497;28;20055;-72
2023/02/22 00:08:18;;;;;;;206.57;188.10;;;;;;;6.83;90.27;101786.28;4905487;29;20047;-72
2023/02/22 00:10:43;;;;;;;;;;;;;;;6.84;90.37;101771.13;4924074;29;20043;-74
2023/02/22 00:13:12;;;;;;;212.75;193.68;;;;;;;6.83;90.50;101767.63;4914294;29;20617;-75
2023/02/22 00:15:41;;;;;;;208.52;189.60;;;;;;;6.83;90.48;101764.97;4917333;29;20404;-74
2023/02/22 00:18:14;;;;;;;209.05;189.82;;;;;;;6.87;90.07;101770.69;4939102;28;20046;-73
2023/02/22 00:20:40;;;;;;;210.95;191.25;;;;;;;6.82;90.49;101773.19;4922743;29;20908;-74
2023/02/22 00:23:08;;;;;;;209.48;189.90;;;;;;;6.81;90.30;101764.38;4922394;29;20520;-73
2023/02/22 00:25:34;;;;;;;213.27;192.85;;;;;;;6.79;90.71;101774.44;4922863;29;20059;-73
2023/02/22 00:28:01;;;;;;;215.07;195.75;;;;;;;6.77;90.44;101773.88;4936502;28;20176;-73
2023/02/22 00:30:30;;;;;;;220.68;200.80;;;;;;;6.76;90.76;101780.19;4920539;29;20090;-73
2023/02/22 00:32:57;;;;;;;213.57;194.48;;;;;;;6.79;90.58;101770.97;4938249;28;20173;-74
2023/02/22 00:35:26;;;;;;;211.25;191.32;;;;;;;6.75;90.69;101767.94;4923431;29;20036;-73
2023/02/22 00:37:57;;;;;;;210.40;189.90;;;;;;;6.73;90.73;101766.53;4905892;29;20051;-73
2023/02/22 00:40:29;;;;;;;221.82;200.75;;;;;;;6.70;90.88;101765.09;4905729;29;20478;-74
2023/02/22 00:43:01;;;;;;;215.32;192.25;;;;;;;6.70;90.71;101764.28;4938876;28;20220;-74
2023/02/22 00:45:28;;;;;;;212.80;191.77;;;;;;;6.70;91.09;101765.09;4939108;28;20115;-73
2023/02/22 00:47:55;;;;;;;210.02;188.32;;;;;;;6.66;91.13;101774.56;4923292;29;20067;-73
2023/02/22 00:50:23;;;;;;;214.07;191.70;;;;;;;6.68;90.85;101775.16;4938088;28;20341;-74
2023/02/22 00:52:52;;;;;;;216.27;193.32;;;;;;;6.65;91.00;101767.63;4922821;29;20039;-74
2023/02/22 00:55:25;;;;;;;220.68;197.45;;;;;;;6.66;91.04;101768.44;4921873;29;20134;-73
2023/02/22 00:57:52;;;;;;;216.52;193.68;;;;;;;6.66;90.86;101769.25;4923195;29;20039;-73
2023/02/22 01:00:29;;;;;;;218.82;195.48;;;;;;;6.66;91.22;101766.59;4905572;29;20052;-73
2023/02/22 01:02:55;;;;;;;218.30;195.07;;;;;;;6.65;90.93;101758.81;4922398;29;20111;-73
2023/02/22 01:05:24;;;;;;;220.02;197.02;;;;;;;6.66;90.92;101766.59;4921478;29;20126;-73
2023/02/22 01:07:54;;;;;;;218.65;197.55;;;;;;;6.66;90.78;101755.13;4921503;29;20269;-74
2023/02/22 01:10:22;;;;;;;218.77;197.90;;;;;;;6.66;90.66;101761.25;4922672;29;20066;-73
2023/02/22 01:12:48;;;;;;;218.80;194.43;;;;;;;6.63;91.03;101769.66;4922195;29;20087;-73
2023/02/22 01:15:20;;;;;;;214.48;193.63;;;;;;;6.64;90.67;101759.84;4909324;29;20391;-74
2023/02/22 01:17:47;;;;;;;217.45;195.57;;;;;;;6.65;91.02;101758.81;4921414;29;20488;-72
2023/02/22 01:20:12;;;;;;;232.32;209.98;;;;;;;6.63;91.06;101759.03;4921501;29;20286;-73
2023/02/22 01:22:40;;;;;;;221.43;199.98;;;;;;;6.62;91.04;101757.41;4924839;29;20264;-73
2023/02/22 01:25:07;;;;;;;216.30;194.45;;;;;;;6.61;90.79;101762.94;4937455;28;20036;-73
2023/02/22 01:27:34;;;;;;;220.00;198.75;;;;;;;6.62;91.10;101762.72;4905205;29;20040;-73
2023/02/22 01:30:07;;;;;;;220.27;198.93;;;;;;;6.64;90.92;101759.84;4920822;29;20040;-73
2023/02/22 01:32:39;;;;;;;216.60;195.57;;;;;;;6.67;90.87;101754.09;4921410;29;20058;-74
2023/02/22 01:35:07;;;;;;;215.07;193.75;;;;;;;6.65;90.86;101756.97;4936253;29;20047;-74
2023/02/22 01:37:34;;;;;;;218.88;197.77;;;;;;;6.62;90.76;101745.94;4920206;29;20081;-74
2023/02/22 01:40:00;;;;;;;219.98;199.20;;;;;;;6.62;90.81;101757.41;4921741;29;20040;-73
2023/02/22 01:42:28;;;;;;;224.15;203.40;;;;;;;6.62;90.83;101751.25;4918871;29;21034;-74
2023/02/22 01:45:34;;;;;;;216.00;194.43;;;;;;;6.65;90.77;101746.31;4921088;29;20146;-73
2023/02/22 01:48:24;;;;;;;224.82;203.07;;;;;;;6.66;90.77;101742.63;4919402;29;20143;-73
2023/02/22 01:50:53;;;;;;;221.80;198.25;;;;;;;6.66;90.74;101742.63;4921949;29;20040;-73
2023/02/22 01:53:43;;;;;;;225.18;201.93;;;;;;;6.64;90.73;101734.06;4925392;29;20036;-73
2023/02/22 01:56:10;;;;;;;223.43;199.27;;;;;;;6.64;91.08;101739.38;4921329;29;20070;-72
2023/02/22 01:58:39;;;;;;;228.80;201.50;;;;;;;6.63;90.84;101736.91;4938829;28;20165;-73
2023/02/22 02:01:05;;;;;;;220.23;198.35;;;;;;;6.59;91.00;101728.56;4922317;29;20824;-73
2023/02/22 02:03:36;;;;;;;223.98;202.88;;;;;;;6.65;90.43;101725.03;4937974;28;20051;-73
2023/02/22 02:06:06;;;;;;;222.02;200.55;;;;;;;6.55;90.88;101725.50;4923867;29;20118;-73
2023/02/22 02:08:41;;;;;;;213.82;192.60;;;;;;;6.50;90.91;101729.84;4921967;29;20696;-73
2023/02/22 02:11:08;;;;;;;212.98;191.23;;;;;;;6.49;91.01;101731.72;4922480;29;20046;-73
2023/02/22 02:13:35;;;;;;;225.77;204.20;;;;;;;6.49;90.69;101725.56;4923992;29;20035;-74
2023/02/22 02:16:01;;;;;;;217.82;197.68;;;;;;;6.48;90.90;101718.63;4934347;28;20969;-73
2023/02/22 02:18:28;;;;;;;221.75;200.05;;;;;;;6.43;91.04;101727.25;4923239;29;20048;-73
2023/02/22 02:21:17;;;;;;;205.80;185.65;;;;;;;6.46;91.06;101718.03;4948375;28;20420;-75
2023/02/22 02:23:58;;;;;;;208.10;186.95;;;;;;;6.40;91.04;101714.41;4924478;29;20079;-75
2023/02/22 02:26:33;;;;;;;209.32;188.75;;;;;;;6.42;90.79;101724.81;4907632;29;20074;-74
2023/02/22 02:29:10;;;;;;;200.18;180.65;;;;;;;6.45;90.91;101719.06;4924281;29;20438;-75
2023/02/22 02:32:01;;;;;;;217.52;196.65;;;;;;;6.46;90.71;101718.03;4926606;29;20039;-74
2023/02/22 02:34:32;;;;;;;209.77;190.77;;;;;;;6.51;90.73;101718.22;4906187;29;20055;-73
2023/02/22 02:37:02;;;;;;;204.75;184.30;;;;;;;6.47;90.72;101722.31;4922910;29;20659;-73
2023/02/22 02:39:48;;;;;;;202.52;181.93;;;;;;;6.43;90.93;101715.78;4923187;29;20584;-74
2023/02/22 02:42:21;;;;;;;219.98;198.45;;;;;;;6.45;91.14;101708.44;4924254;29;20389;-73
2023/02/22 02:45:03;;;;;;;218.80;198.10;;;;;;;6.45;91.01;101711.09;4924560;29;20045;-74
2023/02/22 02:47:35;;;;;;;208.55;187.05;;;;;;;6.48;90.63;101708.78;4923589;29;20131;-73
2023/02/22 02:50:10;;;;;;;219.27;197.57;;;;;;;6.47;90.83;101706.34;4923517;29;20643;-74
2023/02/22 02:52:38;;;;;;;210.25;188.73;;;;;;;6.51;90.61;101696.91;4927159;29;20039;-74
2023/02/22 02:55:10;;;;;;;207.30;186.98;;;;;;;6.52;90.39;101695.88;4925702;29;20091;-74
2023/02/22 02:57:37;;;;;;;216.07;196.93;;;;;;;6.52;90.46;101691.38;4941879;29;20054;-74
2023/02/22 03:00:23;;;;;;;207.38;187.73;;;;;;;6.50;90.72;101695.25;4924619;29;20040;-75
2023/02/22 03:03:24;;;;;;;217.45;198.73;;;;;;;6.53;90.37;101684.19;4925754;29;20035;-75
2023/02/22 03:06:04;;;;;;;222.13;202.98;;;;;;;6.49;90.67;101677.69;4923682;29;20048;-74
2023/02/22 03:08:49;;;;;;;218.52;200.05;;;;;;;6.49;90.46;101685.66;4907709;29;20150;-74
2023/02/22 03:11:21;;;;;;;217.65;199.20;;;;;;;6.43;90.46;101684.69;4923500;29;20031;-74
2023/02/22 03:14:20;;;;;;;203.45;184.70;;;;;;;6.47;90.37;101674.44;4925249;29;20117;-72
2023/02/22 03:16:51;;;;;;;214.95;197.20;;;;;;;6.47;90.07;101675.25;4897292;29;20051;-74
2023/02/22 03:19:49;;;;;;;206.32;187.82;;;;;;;6.47;89.91;101675.25;4922568;29;20493;-73
2023/02/22 03:22:36;;;;;;;204.18;185.95;;;;;;;6.45;90.32;101671.19;4925770;29;20512;-73
2023/02/22 03:25:05;;;;;;;213.10;195.13;;;;;;;6.46;90.05;101678.13;4907838;29;20155;-73
2023/02/22 03:27:48;;;;;;;212.40;194.90;;;;;;;6.46;90.34;101668.28;4922268;29;20054;-72
2023/02/22 03:30:22;;;;;;;199.63;181.75;;;;;;;6.47;90.09;101669.09;4922022;29;20042;-73
2023/02/22 03:32:55;;;;;;;201.50;182.77;;;;;;;6.40;90.16;101673.69;4940856;28;20183;-73
2023/02/22 03:35:34;;;;;;;211.57;193.82;;;;;;;6.52;89.74;101666.59;4923018;29;20031;-73
2023/02/22 03:38:04;;;;;;;213.85;196.30;;;;;;;6.52;89.68;101674.59;4939996;28;20036;-73
2023/02/22 03:40:35;;;;;;;216.85;198.57;;;;;;;6.50;89.90;101672.16;4923796;29;20527;-74
2023/02/22 03:43:06;;;;;;;210.90;193.30;;;;;;;6.51;89.98;101670.31;4923678;29;20078;-73
2023/02/22 03:45:39;;;;;;;202.45;184.63;;;;;;;6.43;89.76;101655.41;4923542;29;20039;-73
2023/02/22 03:48:18;;;;;;;209.25;191.52;;;;;;;6.51;89.79;101662.31;4921911;29;20150;-72
2023/02/22 03:50:44;;;;;;;202.45;184.30;;;;;;;6.47;90.07;101664.59;4925225;29;20032;-73
2023/02/22 03:53:11;;;;;;;210.73;192.77;;;;;;;6.41;90.14;101659.34;4941592;28;20042;-75
2023/02/22 03:55:39;;;;;;;201.30;183.27;;;;;;;6.42;90.00;101656.44;4927044;29;20036;-74
2023/02/22 03:58:10;;;;;;;200.30;182.85;;;;;;;6.40;90.29;101657.72;4940950;28;20046;-74
2023/02/22 04:00:37;;;;;;;203.05;184.65;;;;;;;6.42;90.14;101660.97;4910956;29;20042;-72
2023/02/22 04:03:03;;;;;;;209.98;192.57;;;;;;;6.42;90.06;101666.28;4910514;29;20036;-74
2023/02/22 04:05:28;;;;;;;211.43;193.93;;;;;;;6.38;90.23;101659.78;4925077;29;20051;-74
2023/02/22 04:07:56;;;;;;;213.18;195.20;;;;;;;6.38;90.72;101667.78;4926665;29;20039;-73
2023/02/22 04:10:22;;;;;;;196.73;179.43;;;;;;;6.43;90.70;101670.56;4941029;28;20093;-73
2023/02/22 04:12:49;;;;;;;209.13;191.85;;;;;;;6.43;90.45;101670.56;4942652;28;20054;-73
2023/02/22 04:15:19;;;;;;;195.40;178.23;;;;;;;6.45;90.50;101671.19;4942448;28;20031;-73
2023/02/22 04:17:47;;;;;;;127.45;115.35;;;;;;;6.40;90.55;101665.69;4900825;29;20049;-73
2023/02/22 04:20:18;;;;;;;194.68;177.93;;;;;;;6.46;90.37;101667.47;4942270;28;20039;-73
2023/02/22 04:22:53;;;;;;;202.25;184.38;;;;;;;6.48;90.07;101673.38;4926791;29;20039;-72
2023/02/22 04:25:20;;;;;;;202.25;184.38;;;;;;;6.44;90.08;101659.72;4940489;28;20094;-73
2023/02/22 04:27:46;;;;;;;209.05;191.55;;;;;;;6.42;90.38;101672.41;4925044;29;20150;-73
2023/02/22 04:30:17;;;;;;;203.05;185.27;;;;;;;6.41;90.31;101670.78;4924571;29;20039;-74
2023/02/22 04:32:43;;;;;;;202.68;184.40;;;;;;;6.44;90.36;101678.34;4907731;29;20471;-73
2023/02/22 04:35:10;;;;;;;203.63;184.48;;;;;;;6.46;90.52;101668.28;4922088;29;20077;-72
2023/02/22 04:37:36;;;;;;;207.75;190.95;;;;;;;6.61;90.01;101665.28;4921190;29;20118;-72
2023/02/22 04:40:07;;;;;;;202.20;184.05;;;;;;;6.46;90.54;101673.63;4938547;28;20200;-72
2023/02/22 04:42:35;;;;;;;206.48;187.73;;;;;;;6.47;90.39;101669.09;4922516;29;20473;-73
2023/02/22 04:45:01;;;;;;;213.10;195.07;;;;;;;6.50;90.49;101674.81;4924963;29;20039;-73
2023/02/22 04:47:28;;;;;;;210.20;190.98;;;;;;;6.45;90.63;101666.66;4937846;28;20050;-73
2023/02/22 04:49:53;;;;;;;214.00;195.48;;;;;;;6.53;90.46;101668.22;4922348;28;20113;-73
2023/02/22 04:52:19;;;;;;;202.88;184.48;;;;;;;6.50;90.42;101666.00;4921459;29;20055;-72
2023/02/22 04:54:44;;;;;;;208.75;189.13;;;;;;;6.49;90.10;101657.19;4923393;29;20051;-73
2023/02/22 04:57:10;;;;;;;213.77;195.15;;;;;;;6.49;90.81;101651.06;4923184;29;20610;-72
2023/02/22 04:59:36;;;;;;;221.00;201.35;;;;;;;6.48;90.60;101660.09;4921864;28;20497;-72
2023/02/22 05:02:04;;;;;;;223.00;201.77;;;;;;;6.47;90.76;101661.94;4938565;28;20040;-72
2023/02/22 05:04:29;;;;;;;210.15;190.18;;;;;;;6.54;90.21;101654.69;4922638;29;20040;-75
2023/02/22 05:06:55;;;;;;;215.50;195.77;;;;;;;6.50;90.74;101648.19;4922538;29;20580;-73
2023/02/22 05:09:20;;;;;;;219.80;199.88;;;;;;;6.47;90.61;101650.47;4923393;29;20035;-72
2023/02/22 05:11:46;;;;;;;220.82;199.30;;;;;;;6.47;90.94;101651.28;4923715;29;20188;-73
2023/02/22 05:14:12;;;;;;;217.13;196.00;;;;;;;6.43;90.92;101646.63;4923375;29;20090;-73
2023/02/22 05:16:38;;;;;;;220.38;199.07;;;;;;;6.46;90.89;101662.97;4921827;29;20047;-73
2023/02/22 05:19:04;;;;;;;216.25;194.23;;;;;;;6.50;90.89;101653.53;4906216;29;20938;-73
2023/02/22 05:21:29;;;;;;;224.90;203.32;;;;;;;6.45;91.22;101655.22;4922430;29;20051;-73
2023/02/22 05:23:55;;;;;;;213.45;190.82;;;;;;;6.48;91.13;101654.75;4925320;29;20114;-73
2023/02/22 05:26:20;;;;;;;222.35;199.68;;;;;;;6.47;91.06;101653.13;4941923;28;20071;-74
2023/02/22 05:28:46;;;;;;;213.25;190.38;;;;;;;6.44;91.28;101653.59;4929180;29;20043;-73
2023/02/22 05:31:11;;;;;;;218.07;194.07;;;;;;;6.49;91.36;101653.72;4926454;29;20071;-73
2023/02/22 05:33:38;;;;;;;216.82;193.60;;;;;;;6.45;90.91;101657.88;4942655;28;20045;-73
2023/02/22 05:36:06;;;;;;;218.43;191.63;;;;;;;6.42;91.50;101651.13;4941845;28;20035;-73
2023/02/22 05:38:33;;;;;;;226.75;203.07;;;;;;;6.47;91.42;101650.47;4910512;29;20035;-73
2023/02/22 05:40:59;;;;;;;223.15;199.75;;;;;;;6.45;91.24;101660.53;4925438;29;20048;-73
2023/02/22 05:43:25;;;;;;;228.40;203.75;;;;;;;6.43;91.29;101657.25;4924927;29;20168;-72
2023/02/22 05:45:51;;;;;;;226.23;201.93;;;;;;;6.47;91.30;101659.28;4910365;29;20550;-73
2023/02/22 05:48:16;;;;;;;226.23;199.20;;;;;;;6.46;91.65;101656.84;4941833;28;20154;-73
2023/02/22 05:50:42;;;;;;;223.85;196.88;;;;;;;6.51;91.05;101659.66;4925796;28;20227;-74
2023/02/22 05:53:09;;;;;;;228.07;201.82;;;;;;;6.43;91.43;101651.94;4927596;29;20393;-73
2023/02/22 05:55:34;;;;;;;226.98;202.85;;;;;;;6.47;91.32;101647.81;4941551;29;20047;-75
2023/02/22 05:58:00;;;;;;;231.48;196.50;;;;;;;6.48;91.50;101644.13;4927433;29;20975;-75
2023/02/22 06:00:29;;;;;;;236.65;205.65;;;;;;;6.45;91.39;101644.56;4930439;29;20032;-74
2023/02/22 06:03:01;;;;;;;236.35;192.60;;;;;;;6.46;91.48;101644.34;4929849;29;20196;-75
2023/02/22 06:05:27;;;;;;;229.23;142.87;;;;;;;6.43;91.67;101638.63;4925801;28;20048;-74
2023/02/22 06:07:53;;;;;;;233.05;202.18;;;;;;;6.40;91.69;101653.19;4913448;29;20165;-74
2023/02/22 06:10:19;;;;;;;263.02;206.63;;;;;;;6.40;91.79;101645.22;4928855;29;20035;-77
2023/02/22 06:12:46;;;;;;;244.23;193.90;;;;;;;6.43;91.47;101646.63;4928015;29;20035;-74
2023/02/22 06:15:14;;;;;;;265.70;194.70;;;;;;;6.43;91.41;101646.63;4943960;28;20035;-73
2023/02/22 06:17:40;;;;;;;248.55;191.57;;;;;;;6.40;91.55;101639.09;4941416;29;20034;-73
2023/02/22 06:20:08;;;;;;;235.60;198.63;;;;;;;6.46;91.68;101651.50;4914071;29;20163;-73
2023/02/22 06:22:34;;;;;;;244.13;194.60;;;;;;;6.45;91.53;101647.22;4910937;29;20379;-73
2023/02/22 06:25:02;;;;;;;238.27;187.85;;;;;;;6.43;91.71;101646.63;4942547;28;20091;-73
2023/02/22 06:27:31;;;;;;;276.80;194.80;;;;;;;6.56;91.41;101657.13;4909733;29;20078;-73
2023/02/22 06:30:00;;;;;;;236.07;194.93;;;;;;;6.47;91.33;101653.94;4941891;28;20027;-73
2023/02/22 06:32:26;;;;;;;238.52;204.07;;;;;;;6.46;91.55;101656.84;4941258;28;20102;-73
2023/02/22 06:34:52;;;;;;;237.40;186.32;;;;;;;6.55;91.17;101658.97;4940584;28;20111;-73
2023/02/22 06:37:18;;;;;;;252.25;193.18;;;;;;;6.50;91.70;101658.00;4926178;29;20039;-73
2023/02/22 06:39:43;;;;;;;233.55;202.70;;;;;;;6.60;91.26;101663.66;4926947;29;20027;-73
2023/02/22 06:42:09;;;;;;;214.52;188.57;;;;;;;6.58;91.07;101655.09;4925612;29;20039;-74
2023/02/22 06:44:35;;;;;;;225.05;200.95;;;;;;;6.58;90.99;101655.09;4924462;29;20031;-73
2023/02/22 06:47:01;;;;;;;218.57;196.18;;;;;;;6.74;90.68;101659.81;4924518;29;20066;-73
2023/02/22 06:49:27;;;;;;;227.93;203.63;;;;;;;6.53;91.21;101657.59;4939363;28;20086;-73
2023/02/22 06:51:53;;;;;;;229.70;206.13;;;;;;;6.55;91.31;101663.50;4925825;29;20047;-73
2023/02/22 06:54:20;;;;;;;214.48;191.48;;;;;;;6.55;91.01;101660.84;4926525;29;20051;-73
2023/02/22 06:56:46;;;;;;;222.98;200.90;;;;;;;6.56;91.13;101659.78;4925021;29;20784;-74
2023/02/22 06:59:12;;;;;;;207.38;186.10;;;;;;;6.59;91.05;101662.03;4925049;29;20048;-73
2023/02/22 07:01:42;;;;;;;221.05;198.75;;;;;;;6.53;90.87;101658.41;4925363;29;20390;-73
2023/02/22 07:04:08;;;;;;;209.27;185.70;;;;;;;6.55;90.96;101655.50;4941756;28;20067;-71
2023/02/22 07:06:35;;;;;;;206.55;184.75;;;;;;;6.59;90.92;101650.56;4943769;28;20119;-72
2023/02/22 07:09:01;;;;;;;224.43;202.70;;;;;;;6.60;90.82;101654.84;4925101;29;20067;-72
2023/02/22 07:11:26;;;;;;;210.00;188.32;;;;;;;6.59;90.95;101651.38;4940527;28;20040;-73
2023/02/22 07:13:52;;;;;;;209.18;187.57;;;;;;;6.58;91.10;101655.09;4924531;29;20031;-73
2023/02/22 07:16:17;;;;;;;213.43;192.23;;;;;;;6.67;90.55;101658.25;4940149;29;20043;-73
2023/02/22 07:18:43;;;;;;;219.52;198.93;;;;;;;6.58;90.84;101657.75;4924357;29;20084;-73
2023/02/22 07:21:09;;;;;;;211.60;190.23;;;;;;;6.61;90.89;101653.81;4923767;28;20090;-73
2023/02/22 07:23:35;;;;;;;215.05;194.65;;;;;;;6.65;90.83;101653.16;4924254;29;20127;-73
2023/02/22 07:26:02;;;;;;;216.13;196.10;;;;;;;6.75;90.62;101653.44;4941078;28;20087;-74
2023/02/22 07:28:27;;;;;;;207.48;186.77;;;;;;;6.73;90.75;101652.88;4925800;29;20038;-73
2023/02/22 07:30:53;;;;;;;214.88;195.38;;;;;;;6.76;90.07;101657.72;4923490;29;20032;-73
2023/02/22 07:33:19;;;;;;;207.02;186.25;;;;;;;6.73;90.42;101652.88;4924156;29;20044;-73
2023/02/22 07:35:47;;;;;;;207.15;187.38;;;;;;;6.81;90.41;101649.91;4923976;28;20190;-72
2023/02/22 07:38:15;;;;;;;207.95;189.35;;;;;;;6.74;90.11;101649.16;4923618;29;20591;-73
2023/02/22 07:40:41;;;;;;;212.02;191.30;;;;;;;6.73;90.55;101658.19;4924287;29;20039;-73
2023/02/22 07:43:19;;;;;;;205.27;186.20;;;;;;;6.77;90.62;101656.72;4908776;29;20813;-73
2023/02/22 07:45:45;;;;;;;208.98;189.60;;;;;;;6.82;90.22;101661.38;4922894;29;20034;-73
2023/02/22 07:48:12;;;;;;;210.15;192.00;;;;;;;6.94;89.76;101651.59;4923666;29;20091;-73
2023/02/22 07:50:38;;;;;;;199.82;181.13;;;;;;;6.91;89.60;101648.56;4922563;29;20384;-72
2023/02/22 07:53:07;;;;;;;213.73;194.75;;;;;;;6.92;90.08;101645.69;4925124;29;20044;-73
2023/02/22 07:55:33;;;;;;;216.82;198.00;;;;;;;6.95;89.67;101652.41;4922793;29;20455;-73
2023/02/22 07:58:01;;;;;;;202.00;182.85;;;;;;;7.06;89.43;101647.16;4906456;29;20103;-73
2023/02/22 08:00:32;;;;;;;206.15;186.85;;;;;;;7.04;89.28;101635.09;4923568;29;20066;-72
2023/02/22 08:02:59;;;;;;;220.02;200.43;;;;;;;6.95;89.72;101639.09;4923345;29;20054;-72
2023/02/22 08:05:26;;;;;;;223.77;203.85;;;;;;;7.06;89.67;101630.38;4939267;28;20032;-72
2023/02/22 08:07:52;;;;;;;217.63;198.82;;;;;;;7.07;89.40;101635.47;4921542;29;20035;-72
2023/02/22 08:10:21;;;;;;;218.75;199.85;;;;;;;7.17;89.10;101624.25;4939319;28;20050;-72
2023/02/22 08:12:48;;;;;;;212.52;192.38;;;;;;;7.17;89.17;101632.25;4940591;28;20079;-72
2023/02/22 08:15:17;;;;;;;216.43;198.18;;;;;;;7.25;88.72;101623.97;4924896;29;20050;-72
2023/02/22 08:17:43;;;;;;;213.00;193.18;;;;;;;7.14;89.17;101619.41;4906263;29;20102;-72
2023/02/22 08:20:09;;;;;;;205.30;186.57;;;;;;;7.34;88.67;101625.28;4918036;29;20035;-71
2023/02/22 08:22:34;;;;;;;214.65;196.25;;;;;;;7.24;89.06;101616.19;4916628;29;20091;-73
2023/02/22 08:25:00;;;;;;;206.77;188.20;;;;;;;7.45;88.68;101618.38;4939227;28;20063;-71
2023/02/22 08:27:27;;;;;;;212.90;194.80;;;;;;;7.57;88.18;101610.38;4923897;29;20126;-74
2023/02/22 08:29:54;;;;;;;210.27;192.35;;;;;;;7.47;88.11;101615.47;4923714;29;20043;-72
2023/02/22 08:32:20;;;;;;;213.90;195.80;;;;;;;7.53;88.11;101625.22;4924708;29;20098;-73
2023/02/22 08:34:46;;;;;;;214.77;196.73;;;;;;;7.54;88.16;101616.19;4909219;29;20040;-74
2023/02/22 08:37:12;;;;;;;208.48;191.07;;;;;;;7.52;87.82;101620.91;4924436;29;20035;-74
2023/02/22 08:39:38;;;;;;;204.40;186.13;;;;;;;7.49;88.05;101616.03;4940395;28;20469;-73
2023/02/22 08:42:03;;;;;;;215.25;197.45;;;;;;;7.51;88.26;101611.28;4923633;29;20048;-72
2023/02/22 08:44:29;;;;;;;214.00;196.02;;;;;;;7.46;87.95;101608.50;4923719;29;20118;-73
2023/02/22 08:46:55;;;;;;;204.30;185.73;;;;;;;7.40;88.56;101604.91;4922673;29;20091;-71
2023/02/22 08:49:21;;;;;;;215.98;197.25;;;;;;;7.58;88.18;101612.00;4921987;29;20039;-72
2023/02/22 08:51:47;;;;;;;216.38;197.57;;;;;;;7.51;88.19;101600.63;4923409;29;20043;-71
2023/02/22 08:54:12;;;;;;;216.98;198.38;;;;;;;7.80;87.79;101607.78;4922133;29;20035;-72
2023/02/22 08:56:38;;;;;;;214.45;196.13;;;;;;;7.74;87.68;101613.22;4923091;29;20115;-72
2023/02/22 08:59:06;;;;;;;202.27;184.15;;;;;;;7.74;87.76;101610.53;4941017;28;20090;-72
2023/02/22 09:01:33;;;;;;;205.43;186.80;;;;;;;7.78;87.93;101617.84;4929454;29;20577;-72
2023/02/22 09:04:00;;;;;;;210.52;192.48;;;;;;;7.69;87.58;101619.22;4926320;29;20393;-73
2023/02/22 09:06:25;;;;;;;209.73;192.23;;;;;;;7.55;88.20;101612.47;4926211;29;20107;-72
2023/02/22 09:08:51;;;;;;;209.68;191.75;;;;;;;7.69;88.25;101618.41;4927509;29;20056;-71
2023/02/22 09:11:17;;;;;;;204.73;186.63;;;;;;;7.67;87.77;101621.31;4943156;28;21294;-73
2023/02/22 09:13:43;;;;;;;210.05;190.63;;;;;;;7.64;88.12;101611.09;4927214;29;20111;-73
2023/02/22 09:16:09;;;;;;;208.30;189.40;;;;;;;7.61;87.90;101608.91;4929571;29;20031;-73
2023/02/22 09:18:35;;;;;;;214.43;195.82;;;;;;;7.77;87.30;101610.88;4927934;29;20095;-72
2023/02/22 09:21:03;;;;;;;208.85;191.30;;;;;;;7.90;87.03;101613.34;4950611;28;20074;-72
2023/02/22 09:23:28;;;;;;;213.48;195.63;;;;;;;7.85;86.69;101613.22;4913956;29;20489;-73
2023/02/22 09:25:54;;;;;;;210.63;193.52;;;;;;;7.87;86.91;101616.47;4926022;29;20042;-73
2023/02/22 09:28:20;;;;;;;210.75;193.55;;;;;;;7.98;86.20;101614.03;4909938;29;20039;-73
2023/02/22 09:30:46;;;;;;;208.48;190.38;;;;;;;7.90;86.28;101620.53;4941256;28;20028;-74
2023/02/22 09:33:15;;;;;;;201.98;184.52;;;;;;;8.01;85.95;101610.94;4941446;28;20039;-74
2023/02/22 09:35:45;;;;;;;220.82;202.95;;;;;;;7.90;85.92;101616.00;4925362;29;20108;-74
2023/02/22 09:38:14;;;;;;;217.40;199.73;;;;;;;7.85;86.28;101623.06;4926633;29;20036;-74
2023/02/22 09:40:44;;;;;;;214.30;196.98;;;;;;;7.88;85.45;101612.78;4924507;29;20040;-73
2023/02/22 09:43:32;;;;;;;215.70;198.30;;;;;;;7.79;86.03;101607.97;4942781;28;20126;-73
2023/02/22 09:46:12;;;;;;;207.55;190.02;;;;;;;7.99;85.49;101610.31;4925890;29;20035;-73
2023/02/22 09:48:47;;;;;;;205.85;188.55;;;;;;;7.83;85.69;101601.97;4928253;29;20098;-75
2023/02/22 09:51:16;;;;;;;201.02;183.98;;;;;;;7.81;85.61;101612.06;4928747;29;20885;-75
2023/02/22 09:53:45;;;;;;;211.57;194.57;;;;;;;7.96;84.80;101606.28;4942677;28;20035;-74
2023/02/22 09:56:14;;;;;;;207.18;190.85;;;;;;;7.97;85.32;101615.09;4910464;29;20054;-74
2023/02/22 09:58:44;;;;;;;201.45;184.60;;;;;;;8.10;85.38;101612.19;4943119;28;20068;-75
2023/02/22 10:01:18;;;;;;;199.50;182.82;;;;;;;8.16;84.20;101605.94;4929281;29;20055;-75
2023/02/22 10:04:22;;;;;;;198.88;182.40;;;;;;;8.13;84.25;101607.22;4926573;29;20568;-76
2023/02/22 10:07:04;;;;;;;208.80;192.43;;;;;;;8.13;84.21;101604.56;4916853;29;20664;-75
2023/02/22 10:09:36;;;;;;;204.20;188.00;;;;;;;8.08;84.45;101604.44;4924193;29;20035;-73
2023/02/22 10:12:10;;;;;;;163.97;148.97;;;;;;;8.16;84.18;101601.41;4923666;29;20192;-73
2023/02/22 10:15:07;;;;;;;197.32;180.93;;;;;;;8.22;84.43;101591.66;4941236;29;20345;-73
2023/02/22 10:17:49;;;;;;;206.63;190.52;;;;;;;8.22;84.34;101586.34;4909797;29;20055;-73
2023/02/22 10:20:17;;;;;;;203.07;187.43;;;;;;;8.20;84.01;101591.09;4925833;29;20036;-73
2023/02/22 10:23:01;;;;;;;207.32;190.93;;;;;;;8.23;84.17;101590.63;4916835;29;20039;-74
2023/02/22 10:25:33;;;;;;;203.38;187.38;;;;;;;8.52;83.05;101588.06;4905366;29;20052;-74
2023/02/22 10:28:14;;;;;;;198.05;181.25;;;;;;;8.55;82.01;101590.28;4927036;29;20488;-72
2023/02/22 10:30:53;;;;;;;196.40;180.40;;;;;;;8.69;81.49;101573.75;4926257;29;20097;-74
2023/02/22 10:33:22;;;;;;;205.77;189.93;;;;;;;9.01;80.49;101568.78;4927860;29;20501;-75
2023/02/22 10:35:49;;;;;;;204.00;188.25;;;;;;;9.31;79.31;101567.69;4942503;28;20592;-72
2023/02/22 10:38:26;;;;;;;203.57;187.85;;;;;;;9.25;79.48;101568.66;4941274;28;20036;-73
2023/02/22 10:41:07;;;;;;;207.15;190.98;;;;;;;9.31;79.47;101562.34;4926715;29;20043;-73
2023/02/22 10:43:33;;;;;;;207.05;190.98;;;;;;;9.54;79.24;101556.03;4910083;29;20051;-72
2023/02/22 10:46:04;;;;;;;200.18;183.70;;;;;;;9.40;79.27;101566.22;4926080;29;20046;-73
2023/02/22 10:48:31;;;;;;;195.75;179.52;;;;;;;9.55;79.08;101558.50;4925752;29;20633;-74
2023/02/22 10:51:03;;;;;;;216.80;200.00;;;;;;;9.67;78.26;101549.56;4924956;29;20071;-74
2023/02/22 10:53:30;;;;;;;201.02;184.45;;;;;;;9.72;77.47;101558.47;4925756;29;20023;-72
2023/02/22 10:56:06;;;;;;;207.25;189.80;;;;;;;10.07;76.91;101544.00;4924754;29;20095;-72
2023/02/22 10:58:44;;;;;;;209.65;193.38;;;;;;;10.29;76.39;101542.19;4941906;28;20040;-74
2023/02/22 11:01:27;;;;;;;210.25;194.27;;;;;;;10.38;75.21;101529.19;4927162;29;20038;-73
2023/02/22 11:04:04;;;;;;;219.10;202.05;;;;;;;10.24;75.56;101527.94;4927398;29;20051;-72
2023/02/22 11:06:33;;;;;;;207.18;189.88;;;;;;;10.36;74.84;101518.75;4926052;29;20046;-69
2023/02/22 11:09:04;;;;;;;221.95;204.82;;;;;;;10.31;75.26;101528.56;4926375;29;20035;-72
2023/02/22 11:11:30;;;;;;;219.38;202.15;;;;;;;10.42;74.70;101519.59;4927177;29;20540;-69
2023/02/22 11:13:56;;;;;;;216.00;199.40;;;;;;;10.27;75.29;101522.09;4925561;29;20114;-70